Salt Lake City, Utah
Traffic Map
Current Weather Conditions
Salt Lake City, Utah
Broken Clouds
Broken Clouds
59°
Feels Like: 59°
Wind Chill: 59° Ceiling: 18000
Heat Index: 59° Visibility: 10mi
Dew Point: 43° Wind: 7mph
Humidity: 55% Direction: 300° (WNW)
Pressure: 29.91in Gusts: 0mph
Raw Report DataKSLC 190153Z 30006KT 10SM FEW070 SCT130 BKN180 15/06 A2991 RMK AO2 SLP092 VIRGA DSNT W-N SCSL DSNT SE-SW T01500061
Traffic Incident Summary
Active as of:
Severity:
Category:
InformationThere was an issue retrieving the traffic information for this location. Please try a different location or try again shortly.
Advertisements
At Last! Intellicast now available for iPhone and Android